Time;durP1;ratioP1;P1;durP2;ratioP2;P2;SDS_P1;SDS_P2;PMS_P1;PMS_P2;Temp;Humidity;BMP_temperature;BMP_pressure;BME280_temperature;BME280_humidity;BME280_pressure;Samples;Min_cycle;Max_cycle;Signal;HPM_P1;HPM_P2
2022/10/08 00:01:30;;;;;;;18.70;16.77;;;;;;;8.14;100.00;97387.91;4950870;28;20243;-50
2022/10/08 00:03:58;;;;;;;17.73;15.83;;;;;;;8.10;100.00;97394.50;4927092;28;20906;-54
2022/10/08 00:06:28;;;;;;;18.83;16.67;;;;;;;8.08;100.00;97396.50;4928951;28;20278;-53
2022/10/08 00:08:58;;;;;;;18.20;16.40;;;;;;;8.09;100.00;97395.50;4949659;28;20215;-53
2022/10/08 00:11:28;;;;;;;21.13;17.03;;;;;;;8.09;100.00;97391.03;4912410;28;20282;-54
2022/10/08 00:13:57;;;;;;;18.03;16.17;;;;;;;8.12;100.00;97395.19;4949370;28;20202;-54
2022/10/08 00:16:27;;;;;;;19.50;16.90;;;;;;;8.17;100.00;97392.06;4948682;28;20292;-57
2022/10/08 00:18:59;;;;;;;21.27;18.10;;;;;;;8.23;100.00;97386.13;4927237;28;21239;-53
2022/10/08 00:21:30;;;;;;;18.37;16.67;;;;;;;8.25;100.00;97392.88;4926935;28;20365;-54
2022/10/08 00:24:00;;;;;;;19.00;15.93;;;;;;;8.33;100.00;97392.06;4949958;28;21512;-54
2022/10/08 00:26:30;;;;;;;19.67;17.40;;;;;;;8.33;100.00;97383.31;4921178;28;20224;-56
2022/10/08 00:29:00;;;;;;;18.17;16.27;;;;;;;8.40;100.00;97384.31;4949306;28;20218;-54
2022/10/08 00:31:31;;;;;;;19.93;17.23;;;;;;;8.44;100.00;97387.44;4876592;28;21836;-51
2022/10/08 00:34:03;;;;;;;21.37;17.83;;;;;;;8.43;100.00;97383.16;4928082;28;20343;-51
2022/10/08 00:36:32;;;;;;;20.13;16.67;;;;;;;8.47;100.00;97372.09;4923991;28;20216;-54
2022/10/08 00:39:02;;;;;;;19.70;17.37;;;;;;;8.50;100.00;97370.94;4927794;28;20651;-53
2022/10/08 00:41:32;;;;;;;19.27;17.37;;;;;;;8.42;100.00;97371.78;4946565;28;20320;-55
2022/10/08 00:44:38;;;;;;;20.50;16.67;;;;;;;8.51;100.00;97367.31;4951474;28;20209;-56
2022/10/08 00:47:08;;;;;;;18.83;16.83;;;;;;;8.48;100.00;97363.19;4913097;28;20327;-53
2022/10/08 00:49:38;;;;;;;19.73;17.73;;;;;;;8.46;100.00;97359.88;4947366;28;20223;-52
2022/10/08 00:52:07;;;;;;;20.17;17.17;;;;;;;8.51;100.00;97356.75;4924543;28;20201;-53
2022/10/08 00:54:35;;;;;;;20.97;18.00;;;;;;;8.54;100.00;97345.88;4924792;28;21065;-53
2022/10/08 00:57:05;;;;;;;21.70;18.23;;;;;;;8.54;100.00;97353.81;4946769;28;20209;-51
2022/10/08 00:59:33;;;;;;;20.97;17.47;;;;;;;8.46;100.00;97340.56;4949641;28;20876;-51
2022/10/08 01:02:01;;;;;;;24.37;19.33;;;;;;;8.59;100.00;97351.50;4912184;28;20224;-53
2022/10/08 01:04:30;;;;;;;25.80;22.27;;;;;;;8.72;100.00;97358.06;4943668;28;20217;-53
2022/10/08 01:07:05;;;;;;;28.67;24.03;;;;;;;8.85;100.00;97342.50;4909121;28;20204;-53
2022/10/08 01:09:38;;;;;;;33.27;24.97;;;;;;;8.97;100.00;97342.97;4925232;28;20208;-49
2022/10/08 01:12:10;;;;;;;28.77;25.30;;;;;;;8.92;100.00;97321.53;4938951;28;20197;-52
2022/10/08 01:14:44;;;;;;;28.90;24.17;;;;;;;9.01;100.00;97327.63;4940522;28;20220;-52
2022/10/08 01:17:18;;;;;;;30.00;25.60;;;;;;;9.04;100.00;97329.91;4899371;28;20929;-53
2022/10/08 01:20:15;;;;;;;33.50;25.57;;;;;;;9.08;100.00;97326.75;4947317;28;20237;-57
2022/10/08 01:22:58;;;;;;;28.53;25.20;;;;;;;9.02;100.00;97311.56;4903961;28;20233;-51
2022/10/08 01:25:32;;;;;;;29.53;26.33;;;;;;;9.18;100.00;97323.91;4925034;28;20212;-53
2022/10/08 01:28:08;;;;;;;35.67;28.13;;;;;;;9.24;100.00;97322.41;4949576;28;22498;-52
2022/10/08 01:30:40;;;;;;;30.63;24.90;;;;;;;9.25;100.00;97316.94;4948718;28;20235;-52
2022/10/08 01:33:13;;;;;;;34.87;26.77;;;;;;;9.24;100.00;97314.47;4905948;28;20217;-50
2022/10/08 01:35:44;;;;;;;34.70;28.27;;;;;;;9.30;100.00;97320.91;4944575;28;20240;-54
2022/10/08 01:38:17;;;;;;;37.13;29.27;;;;;;;9.35;100.00;97318.56;4932840;28;20210;-54
2022/10/08 01:40:47;;;;;;;38.60;29.23;;;;;;;9.35;100.00;97316.72;4924960;28;20237;-54
2022/10/08 01:43:18;;;;;;;30.27;26.77;;;;;;;9.38;100.00;97312.91;4947027;28;20221;-52
2022/10/08 01:45:52;;;;;;;35.00;28.63;;;;;;;9.46;100.00;97314.69;4951251;28;20838;-49
2022/10/08 01:48:22;;;;;;;36.93;28.23;;;;;;;9.46;100.00;97312.03;4910159;28;20209;-53
2022/10/08 01:50:53;;;;;;;33.00;28.37;;;;;;;9.44;100.00;97308.75;4947233;28;20905;-50
2022/10/08 01:53:22;;;;;;;35.63;28.33;;;;;;;9.47;100.00;97314.53;4925156;28;20369;-54
2022/10/08 01:55:52;;;;;;;33.37;27.60;;;;;;;9.45;100.00;97311.22;4950481;28;21131;-50
2022/10/08 01:58:27;;;;;;;33.03;27.93;;;;;;;9.43;100.00;97304.44;4921980;28;20220;-54
2022/10/08 02:00:57;;;;;;;36.50;28.13;;;;;;;9.49;100.00;97304.59;4949367;28;20224;-50
2022/10/08 02:03:25;;;;;;;36.43;29.20;;;;;;;9.44;100.00;97317.50;4910467;28;22466;-48
2022/10/08 02:05:54;;;;;;;35.70;28.33;;;;;;;9.40;100.00;97314.38;4946717;28;20216;-53
2022/10/08 02:08:23;;;;;;;31.83;26.37;;;;;;;9.37;100.00;97304.16;4947110;28;20227;-54
2022/10/08 02:10:51;;;;;;;32.47;26.70;;;;;;;9.38;100.00;97305.00;4923959;28;21662;-56
2022/10/08 02:13:20;;;;;;;30.83;26.93;;;;;;;9.40;100.00;97301.16;4924833;28;20411;-51
2022/10/08 02:15:54;;;;;;;36.07;28.97;;;;;;;9.38;100.00;97300.50;4949804;28;20200;-52
2022/10/08 02:18:30;;;;;;;35.40;27.67;;;;;;;9.33;100.00;97291.47;4945732;28;21068;-55
2022/10/08 02:21:00;;;;;;;36.93;30.93;;;;;;;9.31;100.00;97298.75;4911741;28;20229;-50
2022/10/08 02:23:30;;;;;;;33.73;28.87;;;;;;;9.33;100.00;97294.91;4947144;28;20240;-54
2022/10/08 02:26:00;;;;;;;36.53;28.90;;;;;;;9.38;100.00;97286.47;4926114;28;20940;-53
2022/10/08 02:28:32;;;;;;;43.47;30.20;;;;;;;9.29;100.00;97275.13;4923085;28;22090;-54
2022/10/08 02:31:06;;;;;;;38.37;29.83;;;;;;;9.42;100.00;97287.78;4948008;28;20224;-54
2022/10/08 02:33:38;;;;;;;35.23;28.80;;;;;;;9.29;100.00;97284.88;4946987;28;20203;-56
2022/10/08 02:36:08;;;;;;;39.23;30.43;;;;;;;9.30;100.00;97294.47;4858091;28;20216;-54
2022/10/08 02:38:40;;;;;;;32.53;28.03;;;;;;;9.27;100.00;97285.03;4894642;28;20210;-54
2022/10/08 02:41:09;;;;;;;35.10;29.90;;;;;;;9.33;100.00;97281.69;4948775;28;20732;-52
2022/10/08 02:43:42;;;;;;;39.13;31.67;;;;;;;9.36;100.00;97285.84;4920644;28;20222;-52
2022/10/08 02:46:16;;;;;;;39.70;32.57;;;;;;;9.34;100.00;97293.13;4924188;28;20935;-50
2022/10/08 02:48:46;;;;;;;41.87;30.57;;;;;;;9.41;100.00;97289.59;4947536;28;20216;-53
2022/10/08 02:51:17;;;;;;;37.57;31.57;;;;;;;9.44;100.00;97298.16;4949350;28;20229;-54
2022/10/08 02:53:47;;;;;;;41.13;32.07;;;;;;;9.41;100.00;97296.72;4913383;28;20299;-50
2022/10/08 02:56:20;;;;;;;45.30;34.17;;;;;;;9.38;100.00;97289.13;4950346;28;20209;-51
2022/10/08 02:58:48;;;;;;;44.13;34.23;;;;;;;9.42;100.00;97293.06;4922607;28;20209;-54
2022/10/08 03:01:25;;;;;;;45.83;35.63;;;;;;;9.38;100.00;97297.88;4924927;28;20696;-55
2022/10/08 03:03:58;;;;;;;45.73;35.63;;;;;;;9.39;100.00;97291.56;4947975;28;20232;-53
2022/10/08 03:06:28;;;;;;;57.57;36.03;;;;;;;9.25;100.00;97281.75;4947111;28;20499;-53
2022/10/08 03:08:58;;;;;;;56.07;37.37;;;;;;;9.41;100.00;97288.78;4904239;28;20209;-50
2022/10/08 03:11:27;;;;;;;54.07;37.03;;;;;;;9.46;100.00;97290.88;4945599;28;20228;-52
2022/10/08 03:13:57;;;;;;;49.17;35.43;;;;;;;9.44;100.00;97299.00;4922491;28;20297;-54
2022/10/08 03:16:32;;;;;;;68.17;38.23;;;;;;;9.45;100.00;97290.06;4934187;28;20208;-53
2022/10/08 03:19:02;;;;;;;56.70;38.33;;;;;;;9.47;100.00;97290.72;4951011;28;20212;-51
2022/10/08 03:21:31;;;;;;;58.43;37.27;;;;;;;9.49;100.00;97293.19;4949044;28;20224;-54
2022/10/08 03:23:59;;;;;;;67.27;39.53;;;;;;;9.43;100.00;97289.41;4907682;28;20232;-52
2022/10/08 03:26:27;;;;;;;52.13;37.13;;;;;;;9.47;100.00;97292.53;4950883;28;21017;-55
2022/10/08 03:28:55;;;;;;;69.13;36.90;;;;;;;9.43;100.00;97291.22;4926114;28;20298;-50
2022/10/08 03:31:24;;;;;;;93.83;40.50;;;;;;;9.35;100.00;97285.00;4943211;28;20229;-54
2022/10/08 03:33:54;;;;;;;84.63;38.10;;;;;;;9.43;100.00;97294.72;4939369;28;20219;-53
2022/10/08 03:36:23;;;;;;;80.30;35.97;;;;;;;9.41;100.00;97294.06;4951188;28;20209;-53
2022/10/08 03:38:52;;;;;;;91.33;39.83;;;;;;;9.41;100.00;97304.63;4905892;28;21229;-50
2022/10/08 03:41:20;;;;;;;60.47;35.93;;;;;;;9.32;100.00;97308.34;4950940;28;20221;-48
2022/10/08 03:43:48;;;;;;;66.37;37.77;;;;;;;9.42;100.00;97301.00;4950914;28;20225;-55
2022/10/08 03:46:16;;;;;;;61.17;37.57;;;;;;;9.40;100.00;97298.50;4926485;28;20224;-52
2022/10/08 03:48:48;;;;;;;62.80;36.90;;;;;;;9.36;100.00;97304.34;4917419;28;20217;-53
2022/10/08 03:51:19;;;;;;;57.13;35.23;;;;;;;9.39;100.00;97301.34;4951880;28;20244;-56
2022/10/08 03:53:47;;;;;;;86.77;38.20;;;;;;;9.35;100.00;97305.34;4948955;28;20197;-53
2022/10/08 03:56:17;;;;;;;55.80;37.03;;;;;;;9.38;100.00;97310.28;4906373;28;20217;-52
2022/10/08 03:58:46;;;;;;;54.07;37.67;;;;;;;9.37;100.00;97300.69;4919498;28;20213;-51
2022/10/08 04:01:15;;;;;;;57.47;37.70;;;;;;;9.34;100.00;97296.56;4919797;28;20275;-56
2022/10/08 04:03:45;;;;;;;68.57;39.03;;;;;;;9.35;100.00;97306.16;4889981;28;20256;-53
2022/10/08 04:06:13;;;;;;;46.40;36.37;;;;;;;9.30;100.00;97310.31;4947031;28;21125;-51
2022/10/08 04:08:43;;;;;;;74.57;37.63;;;;;;;9.18;100.00;97288.72;4948123;28;20209;-50
2022/10/08 04:11:12;;;;;;;51.97;35.10;;;;;;;9.22;100.00;97317.28;4906582;28;21740;-52
2022/10/08 04:13:41;;;;;;;48.93;34.97;;;;;;;9.21;100.00;97318.28;4945827;28;20201;-51
2022/10/08 04:16:11;;;;;;;40.70;33.83;;;;;;;9.09;100.00;97303.78;4923435;28;21034;-52
2022/10/08 04:18:40;;;;;;;40.67;32.17;;;;;;;9.14;100.00;97313.88;4922513;28;21292;-53
2022/10/08 04:21:09;;;;;;;41.23;32.37;;;;;;;9.14;100.00;97322.59;4945066;28;20352;-51
2022/10/08 04:23:39;;;;;;;36.70;32.10;;;;;;;9.15;100.00;97315.50;4945645;28;20228;-52
2022/10/08 04:26:10;;;;;;;43.60;33.97;;;;;;;9.12;100.00;97325.44;4906210;28;20216;-51
2022/10/08 04:28:39;;;;;;;42.80;35.10;;;;;;;9.12;100.00;97324.59;4914064;28;20205;-47
2022/10/08 04:31:10;;;;;;;41.23;33.47;;;;;;;9.12;100.00;97322.78;4920650;28;20925;-51
2022/10/08 04:33:39;;;;;;;39.43;32.30;;;;;;;9.11;100.00;97320.31;4924028;28;20212;-51
2022/10/08 04:36:08;;;;;;;39.20;32.83;;;;;;;9.08;100.00;97315.34;4947907;28;20720;-50
2022/10/08 04:38:37;;;;;;;35.73;31.60;;;;;;;9.14;100.00;97317.31;4921142;28;20213;-47
2022/10/08 04:41:06;;;;;;;35.03;30.80;;;;;;;9.17;100.00;97318.81;4906818;28;20229;-50
2022/10/08 04:43:37;;;;;;;38.23;32.23;;;;;;;9.17;100.00;97319.63;4877843;28;20268;-55
2022/10/08 04:46:07;;;;;;;37.53;32.80;;;;;;;9.14;100.00;97314.66;4926692;28;20216;-56
2022/10/08 04:48:35;;;;;;;34.23;29.50;;;;;;;9.12;100.00;97317.50;4942344;28;20208;-52
2022/10/08 04:51:06;;;;;;;33.20;29.63;;;;;;;9.15;100.00;97318.16;4910562;28;20237;-52
2022/10/08 04:53:37;;;;;;;34.77;30.07;;;;;;;9.18;100.00;97315.97;4949427;28;20774;-56
2022/10/08 04:56:10;;;;;;;34.27;30.13;;;;;;;9.05;100.00;97300.66;4948608;28;20209;-54
2022/10/08 04:58:40;;;;;;;33.93;29.23;;;;;;;9.11;100.00;97326.44;4880799;28;20233;-53
2022/10/08 05:01:11;;;;;;;34.57;30.87;;;;;;;9.08;100.00;97332.03;4949021;28;20229;-56
2022/10/08 05:03:41;;;;;;;32.43;29.03;;;;;;;9.06;100.00;97336.66;4893892;28;20241;-57
2022/10/08 05:06:10;;;;;;;32.23;28.77;;;;;;;9.07;100.00;97330.38;4903848;28;20285;-56
2022/10/08 05:08:38;;;;;;;30.53;27.37;;;;;;;9.10;100.00;97334.50;4924794;28;20480;-56
2022/10/08 05:11:07;;;;;;;31.13;27.93;;;;;;;9.13;100.00;97342.09;4945287;28;20269;-55
2022/10/08 05:13:35;;;;;;;31.50;28.07;;;;;;;9.12;100.00;97340.44;4917979;28;21223;-52
2022/10/08 05:16:06;;;;;;;31.97;28.63;;;;;;;8.97;100.00;97324.47;4948439;28;20917;-53
2022/10/08 05:18:35;;;;;;;33.73;29.53;;;;;;;9.10;100.00;97345.09;4925218;28;20337;-49
2022/10/08 05:21:05;;;;;;;31.43;28.00;;;;;;;9.07;100.00;97335.66;4924410;28;22525;-52
2022/10/08 05:23:34;;;;;;;32.17;28.67;;;;;;;9.19;100.00;97344.06;4929772;28;20208;-51
2022/10/08 05:26:02;;;;;;;31.33;28.03;;;;;;;9.12;100.00;97343.09;4945051;28;20244;-50
2022/10/08 05:28:30;;;;;;;30.40;27.13;;;;;;;9.16;100.00;97338.31;4943943;28;20210;-49
2022/10/08 05:31:01;;;;;;;31.73;28.43;;;;;;;9.02;100.00;97323.97;4911161;28;20298;-54
2022/10/08 05:33:31;;;;;;;30.40;27.23;;;;;;;9.16;100.00;97341.75;4925661;28;20651;-56
2022/10/08 05:36:02;;;;;;;32.00;28.60;;;;;;;9.19;100.00;97349.34;4923231;28;20792;-51
2022/10/08 05:38:31;;;;;;;29.13;26.37;;;;;;;9.10;100.00;97348.56;4923675;28;20205;-50
2022/10/08 05:41:10;;;;;;;30.53;27.53;;;;;;;9.06;100.00;97346.44;4947518;28;20233;-50
2022/10/08 05:43:38;;;;;;;30.67;27.70;;;;;;;9.06;100.00;97354.34;4949959;28;20979;-51
2022/10/08 05:46:07;;;;;;;30.23;27.13;;;;;;;9.05;100.00;97358.81;4912814;28;21877;-50
2022/10/08 05:48:37;;;;;;;30.07;27.13;;;;;;;9.01;100.00;97357.50;4926707;28;20217;-56
2022/10/08 05:51:07;;;;;;;30.93;27.83;;;;;;;9.09;100.00;97364.59;4931316;28;20225;-51
2022/10/08 05:53:36;;;;;;;29.47;26.60;;;;;;;9.20;100.00;97356.28;4911881;28;20220;-51
2022/10/08 05:56:06;;;;;;;30.10;26.97;;;;;;;9.25;100.00;97364.50;4926882;28;20205;-49
2022/10/08 05:58:35;;;;;;;28.67;25.57;;;;;;;9.29;100.00;97359.72;4946372;28;20209;-55
2022/10/08 06:01:06;;;;;;;31.80;28.40;;;;;;;9.23;100.00;97363.88;4912116;28;20796;-54
2022/10/08 06:03:36;;;;;;;31.23;27.87;;;;;;;9.32;100.00;97374.44;4947730;28;20295;-53
2022/10/08 06:06:06;;;;;;;30.40;27.30;;;;;;;9.37;100.00;97377.38;4925377;28;20229;-55
2022/10/08 06:08:36;;;;;;;31.03;27.77;;;;;;;9.43;100.00;97376.69;4902388;28;20224;-53
2022/10/08 06:11:05;;;;;;;31.03;27.83;;;;;;;9.34;100.00;97367.16;4952587;28;20233;-55
2022/10/08 06:13:34;;;;;;;32.27;28.80;;;;;;;9.54;100.00;97378.13;4957836;28;20216;-55
2022/10/08 06:16:05;;;;;;;31.53;28.10;;;;;;;9.67;100.00;97378.41;4956101;28;20338;-58
2022/10/08 06:18:36;;;;;;;31.83;28.60;;;;;;;9.78;100.00;97382.47;4914244;28;20209;-47
2022/10/08 06:21:06;;;;;;;31.43;28.13;;;;;;;9.85;100.00;97388.72;4923155;28;22329;-49
2022/10/08 06:23:34;;;;;;;31.77;28.37;;;;;;;9.97;100.00;97390.97;4880798;28;20209;-49
2022/10/08 06:26:03;;;;;;;30.53;27.23;;;;;;;9.96;100.00;97390.16;4927660;28;20235;-54
2022/10/08 06:28:32;;;;;;;31.07;27.97;;;;;;;10.04;100.00;97393.75;4945264;28;21075;-51
2022/10/08 06:31:01;;;;;;;30.60;27.47;;;;;;;9.94;100.00;97393.97;4947680;28;20233;-52
2022/10/08 06:33:30;;;;;;;31.07;27.80;;;;;;;10.05;100.00;97383.00;4912040;28;20377;-51
2022/10/08 06:36:04;;;;;;;30.30;27.30;;;;;;;10.21;100.00;97399.75;4921828;28;21481;-50
2022/10/08 06:38:32;;;;;;;29.37;26.43;;;;;;;10.11;100.00;97405.28;4902421;28;20875;-49
2022/10/08 06:41:00;;;;;;;32.07;28.90;;;;;;;10.30;100.00;97403.97;4947777;28;20285;-54
2022/10/08 06:43:29;;;;;;;30.10;27.10;;;;;;;10.36;100.00;97410.41;4925203;28;20251;-50
2022/10/08 06:45:59;;;;;;;30.87;27.67;;;;;;;10.26;100.00;97408.00;4948794;28;20445;-53
2022/10/08 06:48:27;;;;;;;29.63;26.67;;;;;;;10.44;100.00;97414.84;4936400;28;20324;-54
2022/10/08 06:50:59;;;;;;;31.97;28.70;;;;;;;10.27;100.00;97407.00;4894385;28;20961;-56
2022/10/08 06:53:29;;;;;;;28.63;25.93;;;;;;;10.34;100.00;97417.72;4944708;28;20213;-53
2022/10/08 06:55:58;;;;;;;30.73;27.63;;;;;;;10.34;100.00;97421.16;4924870;28;20498;-53
2022/10/08 06:58:26;;;;;;;31.00;27.93;;;;;;;10.40;100.00;97424.97;4950909;28;20210;-55
2022/10/08 07:01:02;;;;;;;34.60;30.93;;;;;;;10.49;100.00;97415.16;4950261;28;20244;-52
2022/10/08 07:03:31;;;;;;;32.67;29.40;;;;;;;10.34;100.00;97420.34;4933230;28;22178;-54
2022/10/08 07:06:02;;;;;;;29.57;26.43;;;;;;;10.21;100.00;97411.16;4935292;28;20240;-52
2022/10/08 07:08:32;;;;;;;29.93;26.53;;;;;;;10.22;100.00;97410.16;4950508;28;20212;-50
2022/10/08 07:11:04;;;;;;;31.33;28.03;;;;;;;10.25;100.00;97406.34;4928075;28;20762;-48
2022/10/08 07:13:32;;;;;;;30.10;26.93;;;;;;;10.32;100.00;97417.88;4950137;28;20218;-53
2022/10/08 07:16:04;;;;;;;31.57;28.23;;;;;;;10.42;100.00;97407.91;4951039;28;21002;-51
2022/10/08 07:18:35;;;;;;;31.00;27.83;;;;;;;10.46;100.00;97413.66;4948029;28;20897;-51
2022/10/08 07:21:04;;;;;;;27.57;24.77;;;;;;;10.47;100.00;97401.25;4912653;28;20907;-53
2022/10/08 07:23:34;;;;;;;30.23;27.33;;;;;;;10.54;100.00;97410.94;4946999;28;20201;-52
2022/10/08 07:26:04;;;;;;;30.23;27.30;;;;;;;10.67;100.00;97404.25;4951512;28;20221;-46
2022/10/08 07:28:34;;;;;;;30.60;27.50;;;;;;;10.83;100.00;97424.47;4926953;28;20338;-51
2022/10/08 07:31:04;;;;;;;30.07;27.03;;;;;;;10.78;100.00;97424.16;4951069;28;21022;-51
2022/10/08 07:33:32;;;;;;;30.10;27.30;;;;;;;10.77;100.00;97426.00;4950764;28;21084;-53
2022/10/08 07:36:09;;;;;;;31.47;28.40;;;;;;;10.91;100.00;97434.16;4918349;28;20232;-55
2022/10/08 07:38:39;;;;;;;27.13;24.53;;;;;;;10.76;100.00;97429.66;4947840;28;20704;-54
2022/10/08 07:41:08;;;;;;;29.07;26.30;;;;;;;10.95;100.00;97435.44;4952163;28;20229;-55
2022/10/08 07:43:39;;;;;;;28.63;25.73;;;;;;;10.66;100.00;97432.53;4934207;28;21207;-49
2022/10/08 07:46:08;;;;;;;28.50;25.60;;;;;;;10.80;100.00;97432.78;4952192;28;20229;-50
2022/10/08 07:48:37;;;;;;;27.30;24.50;;;;;;;10.77;100.00;97441.91;4949752;28;20985;-53
2022/10/08 07:51:09;;;;;;;29.47;26.57;;;;;;;10.78;100.00;97445.38;4916648;28;21226;-49
2022/10/08 07:53:39;;;;;;;28.00;25.10;;;;;;;10.94;100.00;97447.88;4948237;28;20210;-52
2022/10/08 07:56:10;;;;;;;29.07;26.27;;;;;;;10.98;100.00;97443.88;4952066;28;20213;-52
2022/10/08 07:58:38;;;;;;;29.40;26.23;;;;;;;10.84;100.00;97452.63;4928337;28;21497;-51
2022/10/08 08:01:09;;;;;;;28.40;25.70;;;;;;;10.83;100.00;97462.38;4951034;28;20234;-49
2022/10/08 08:03:37;;;;;;;28.53;25.73;;;;;;;10.95;100.00;97459.28;4948266;28;20244;-51
2022/10/08 08:06:08;;;;;;;28.77;25.87;;;;;;;10.96;100.00;97453.00;4952285;28;20235;-50
2022/10/08 08:08:38;;;;;;;27.73;24.83;;;;;;;10.90;100.00;97462.50;4909776;28;20222;-52
2022/10/08 08:11:09;;;;;;;29.13;26.13;;;;;;;11.13;100.00;97465.09;4953879;28;20229;-51
2022/10/08 08:13:39;;;;;;;28.90;25.87;;;;;;;11.02;100.00;97452.28;4941812;28;20209;-53
2022/10/08 08:16:09;;;;;;;29.70;26.70;;;;;;;11.27;100.00;97457.34;4961001;28;20209;-52
2022/10/08 08:18:39;;;;;;;28.13;25.53;;;;;;;11.36;100.00;97460.75;4962848;28;20201;-54
2022/10/08 08:21:09;;;;;;;26.53;23.93;;;;;;;11.49;100.00;97447.66;4980180;28;20224;-53
2022/10/08 08:23:40;;;;;;;26.83;24.40;;;;;;;11.88;100.00;97453.66;4932980;28;20208;-54
2022/10/08 08:26:11;;;;;;;27.87;25.27;;;;;;;11.62;100.00;97451.50;4953196;28;20784;-51
2022/10/08 08:28:40;;;;;;;26.33;23.97;;;;;;;12.01;100.00;97456.50;4930352;28;20220;-51
2022/10/08 08:31:10;;;;;;;25.87;23.13;;;;;;;11.96;100.00;97456.22;4952426;28;20237;-49
2022/10/08 08:33:38;;;;;;;25.67;23.27;;;;;;;12.07;100.00;97462.91;4947187;28;20197;-52
2022/10/08 08:36:07;;;;;;;29.07;26.30;;;;;;;11.90;100.00;97453.47;4949735;28;20347;-48
2022/10/08 08:38:35;;;;;;;25.93;23.33;;;;;;;11.94;100.00;97470.72;4905086;28;22251;-52
2022/10/08 08:41:21;;;;;;;31.77;27.57;;;;;;;11.93;100.00;97472.53;4947103;28;20367;-56
2022/10/08 08:43:49;;;;;;;25.73;23.33;;;;;;;12.07;100.00;97468.22;4920334;28;20217;-55
2022/10/08 08:46:19;;;;;;;25.27;22.80;;;;;;;12.21;100.00;97474.53;4947671;28;20385;-51
2022/10/08 08:48:47;;;;;;;25.50;23.23;;;;;;;12.13;100.00;97467.47;4948003;28;20205;-50
2022/10/08 08:51:16;;;;;;;24.23;21.97;;;;;;;12.02;100.00;97475.94;4917136;28;20828;-50
2022/10/08 08:53:44;;;;;;;24.93;22.63;;;;;;;12.04;100.00;97473.91;4913479;28;20576;-56
2022/10/08 08:56:16;;;;;;;22.80;20.73;;;;;;;11.67;100.00;97483.63;4899912;28;20204;-50
2022/10/08 08:58:48;;;;;;;24.77;22.57;;;;;;;11.62;100.00;97486.81;4930246;28;20205;-49
2022/10/08 09:01:23;;;;;;;24.33;22.10;;;;;;;11.72;100.00;97490.00;4948375;28;20250;-52
2022/10/08 09:03:54;;;;;;;24.87;22.30;;;;;;;11.75;100.00;97482.72;4920304;28;20216;-52
2022/10/08 09:06:24;;;;;;;23.20;21.07;;;;;;;12.02;100.00;97489.22;4921439;28;20228;-52
2022/10/08 09:08:55;;;;;;;23.77;21.37;;;;;;;11.99;100.00;97481.59;4948495;28;20201;-53
2022/10/08 09:11:25;;;;;;;25.57;23.27;;;;;;;12.20;100.00;97477.34;4877284;28;20818;-51
2022/10/08 09:13:58;;;;;;;24.17;21.63;;;;;;;12.19;100.00;97473.88;4900198;28;20213;-53
2022/10/08 09:16:27;;;;;;;23.40;21.37;;;;;;;12.15;100.00;97469.97;4900071;28;20212;-54
2022/10/08 09:18:56;;;;;;;23.77;21.57;;;;;;;12.11;100.00;97473.97;4902008;28;20721;-53
2022/10/08 09:21:25;;;;;;;22.30;20.33;;;;;;;12.39;100.00;97473.25;4899198;28;20741;-53
2022/10/08 09:23:53;;;;;;;23.57;21.27;;;;;;;12.47;100.00;97467.00;4944798;28;20220;-50
2022/10/08 09:26:23;;;;;;;23.90;21.80;;;;;;;12.69;100.00;97473.16;4901463;28;20362;-52
2022/10/08 09:28:54;;;;;;;23.20;21.20;;;;;;;13.07;100.00;97472.03;4939404;28;20346;-50
2022/10/08 09:31:28;;;;;;;22.27;20.23;;;;;;;13.15;100.00;97472.72;4926831;28;20229;-47
2022/10/08 09:34:06;;;;;;;21.93;20.00;;;;;;;13.42;100.00;97472.06;4923688;28;20240;-53
2022/10/08 09:36:36;;;;;;;22.90;20.57;;;;;;;13.59;100.00;97469.94;4901640;28;20209;-51
2022/10/08 09:39:06;;;;;;;20.73;18.83;;;;;;;13.43;100.00;97465.75;4926995;28;20204;-52
2022/10/08 09:41:34;;;;;;;20.97;19.07;;;;;;;13.54;100.00;97462.56;4922166;28;20735;-50
2022/10/08 09:44:14;;;;;;;21.27;19.47;;;;;;;13.59;100.00;97460.13;4882244;28;20210;-48
2022/10/08 09:46:42;;;;;;;21.17;19.37;;;;;;;13.82;100.00;97464.34;4947824;28;22415;-50
2022/10/08 09:49:25;;;;;;;21.87;19.87;;;;;;;13.71;100.00;97459.56;4898363;28;20267;-49
2022/10/08 09:51:54;;;;;;;21.93;19.60;;;;;;;13.89;100.00;97457.22;4899566;28;20217;-51
2022/10/08 09:54:24;;;;;;;22.43;20.43;;;;;;;13.70;100.00;97457.94;4922817;28;20455;-48
2022/10/08 09:56:55;;;;;;;21.07;18.97;;;;;;;13.74;100.00;97446.69;4942142;28;20204;-53
2022/10/08 09:59:26;;;;;;;20.37;18.57;;;;;;;13.65;100.00;97460.38;4901085;28;20212;-49
2022/10/08 10:01:55;;;;;;;21.17;19.23;;;;;;;13.77;100.00;97464.09;4937145;28;20898;-53
2022/10/08 10:04:31;;;;;;;20.80;18.80;;;;;;;13.78;100.00;97463.09;4938120;28;21270;-52
2022/10/08 10:06:59;;;;;;;21.07;18.97;;;;;;;13.98;100.00;97457.03;4907908;28;20225;-52
2022/10/08 10:09:38;;;;;;;19.37;17.77;;;;;;;14.10;100.00;97443.97;4947407;28;20212;-50
2022/10/08 10:12:14;;;;;;;22.00;20.07;;;;;;;14.16;100.00;97449.31;4922845;28;20211;-50
2022/10/08 10:14:46;;;;;;;20.93;18.83;;;;;;;14.08;100.00;97452.16;4910974;28;21030;-52
2022/10/08 10:17:20;;;;;;;19.37;17.30;;;;;;;14.23;100.00;97440.53;4921722;28;20209;-51
2022/10/08 10:19:53;;;;;;;20.03;18.27;;;;;;;13.84;100.00;97451.66;4948540;28;20225;-54
2022/10/08 10:22:26;;;;;;;20.17;18.13;;;;;;;13.89;100.00;97432.41;4909744;28;20394;-51
2022/10/08 10:25:00;;;;;;;19.80;17.97;;;;;;;13.88;100.00;97455.56;4948264;28;20202;-51
2022/10/08 10:27:32;;;;;;;20.43;18.33;;;;;;;14.21;100.00;97446.03;4949498;28;20228;-53
2022/10/08 10:30:07;;;;;;;20.27;18.37;;;;;;;13.95;100.00;97433.47;4882734;28;21086;-52
2022/10/08 10:32:38;;;;;;;20.90;19.00;;;;;;;14.29;100.00;97442.38;4948399;28;20221;-56
2022/10/08 10:35:12;;;;;;;20.50;18.50;;;;;;;14.33;100.00;97438.28;4925012;28;20208;-55
2022/10/08 10:37:45;;;;;;;21.53;19.23;;;;;;;14.68;100.00;97437.31;4926899;28;21062;-56
2022/10/08 10:40:29;;;;;;;21.13;19.27;;;;;;;14.63;100.00;97432.59;4948432;28;21041;-51
2022/10/08 10:43:12;;;;;;;20.63;18.70;;;;;;;14.97;100.00;97427.28;4949509;28;20215;-49
2022/10/08 10:45:45;;;;;;;20.77;18.90;;;;;;;14.98;100.00;97436.94;4915336;28;20209;-53
2022/10/08 10:48:14;;;;;;;20.47;18.47;;;;;;;14.69;100.00;97434.44;4923815;28;20224;-48
2022/10/08 10:51:00;;;;;;;20.50;18.80;;;;;;;14.61;100.00;97429.31;4952392;28;20303;-49
2022/10/08 10:53:37;;;;;;;20.20;18.40;;;;;;;14.79;100.00;97436.75;4928542;28;20224;-52
2022/10/08 10:56:08;;;;;;;19.23;17.73;;;;;;;14.68;100.00;97424.81;4948679;28;20208;-49
2022/10/08 10:59:03;;;;;;;19.27;17.57;;;;;;;14.94;100.00;97427.72;4951628;28;20760;-52
2022/10/08 11:01:40;;;;;;;20.20;18.40;;;;;;;14.80;100.00;97416.22;4904860;28;20836;-56
2022/10/08 11:04:10;;;;;;;20.63;18.83;;;;;;;15.07;100.00;97413.53;4944807;28;20215;-50
2022/10/08 11:06:59;;;;;;;20.00;18.20;;;;;;;14.84;100.00;97412.94;4939971;28;20213;-51
2022/10/08 11:09:33;;;;;;;18.77;17.17;;;;;;;14.95;100.00;97424.81;4953610;28;20941;-50
2022/10/08 11:12:05;;;;;;;20.90;19.10;;;;;;;14.59;100.00;97421.50;4950915;28;20227;-51
2022/10/08 11:14:43;;;;;;;19.63;17.53;;;;;;;15.06;100.00;97420.72;4925113;28;20481;-48
2022/10/08 11:17:24;;;;;;;18.47;16.57;;;;;;;15.51;100.00;97419.19;4918561;28;20209;-53
2022/10/08 11:20:01;;;;;;;18.63;16.93;;;;;;;15.60;100.00;97409.94;4949500;28;21222;-49
2022/10/08 11:22:34;;;;;;;19.17;17.37;;;;;;;16.16;100.00;97403.13;4926831;28;20780;-54
2022/10/08 11:25:14;;;;;;;18.40;16.57;;;;;;;15.92;100.00;97402.03;4949442;28;20231;-49
2022/10/08 11:27:48;;;;;;;17.50;16.00;;;;;;;15.99;100.00;97402.81;4938793;28;20276;-54
2022/10/08 11:30:19;;;;;;;17.73;15.87;;;;;;;16.10;100.00;97408.50;4924440;28;20230;-56
2022/10/08 11:32:53;;;;;;;17.27;15.53;;;;;;;15.94;100.00;97397.28;4951904;28;20209;-50